Time;durP1;ratioP1;P1;durP2;ratioP2;P2;SDS_P1;SDS_P2;PMS_P1;PMS_P2;Temp;Humidity;BMP_temperature;BMP_pressure;BME280_temperature;BME280_humidity;BME280_pressure;Samples;Min_cycle;Max_cycle;Signal;HPM_P1;HPM_P2
2023/06/14 00:00:56;;;;;;;;;;;;;;;;;;5036871;28;19979;-27
2023/06/14 00:03:24;;;;;;;;;;;;;;;;;;5036541;28;20248;-21
2023/06/14 00:05:50;;;;;;;;;;;;;;;;;;5036535;28;20014;-30
2023/06/14 00:08:16;;;;;;;;;;;;;;;;;;5036389;28;19948;-29
2023/06/14 00:10:42;;;;;;;;;;;;;;;;;;5036397;28;19909;-24
2023/06/14 00:13:08;;;;;;;;;;;;;;;;;;5036278;28;19909;-27
2023/06/14 00:15:34;;;;;;;;;;;;;;;;;;5036232;28;20332;-28
2023/06/14 00:18:03;;;;;;;;;;;;;;;;;;5036294;28;20299;-24
2023/06/14 00:20:29;;;;;;;;;;;;;;;;;;5036422;28;19967;-26
2023/06/14 00:22:55;;;;;;;;;;;;;;;;;;5036200;28;20324;-28
2023/06/14 00:25:21;;;;;;;;;;;;;;;;;;5036516;28;19913;-27
2023/06/14 00:27:47;;;;;;;;;;;;;;;;;;5036165;28;20237;-24
2023/06/14 00:30:13;;;;;;;;;;;;;;;;;;5036065;28;19910;-26
2023/06/14 00:32:38;;;;;;;;;;;;;;;;;;5036003;28;19959;-23
2023/06/14 00:35:04;;;;;;;;;;;;;;;;;;5035857;28;19924;-24
2023/06/14 00:37:30;;;;;;;;;;;;;;;;;;5035888;28;20274;-29
2023/06/14 00:39:56;;;;;;;;;;;;;;;;;;5035863;28;19909;-22
2023/06/14 00:42:22;;;;;;;;;;;;;;;;;;5035705;28;20279;-26
2023/06/14 00:44:48;;;;;;;;;;;;;;;;;;5035730;28;19909;-26
2023/06/14 00:47:14;;;;;;;;;;;;;;;;;;5035976;28;20414;-24
2023/06/14 00:49:40;;;;;;;;;;;;;;;;;;5035701;28;20327;-22
2023/06/14 00:52:06;;;;;;;;;;;;;;;;;;5035630;28;20362;-25
2023/06/14 00:54:32;;;;;;;;;;;;;;;;;;5035522;28;20296;-26
2023/06/14 00:56:58;;;;;;;;;;;;;;;;;;5035514;28;19947;-29
2023/06/14 00:59:24;;;;;;;;;;;;;;;;;;5035527;28;19917;-23
2023/06/14 01:01:50;;;;;;;;;;;;;;;;;;5034443;28;19962;-24
2023/06/14 01:04:16;;;;;;;;;;;;;;;;;;5035395;28;19922;-24
2023/06/14 01:06:42;;;;;;;;;;;;;;;;;;5035430;28;20290;-24
2023/06/14 01:09:08;;;;;;;;;;;;;;;;;;5035306;28;20066;-24
2023/06/14 01:11:34;;;;;;;;;;;;;;;;;;5035584;28;20248;-26
2023/06/14 01:14:00;;;;;;;;;;;;;;;;;;5035143;28;19909;-28
2023/06/14 01:16:26;;;;;;;;;;;;;;;;;;5035477;28;19909;-28
2023/06/14 01:18:52;;;;;;;;;;;;;;;;;;5035170;28;19990;-22
2023/06/14 01:21:18;;;;;;;;;;;;;;;;;;5035140;28;19909;-27
2023/06/14 01:23:44;;;;;;;;;;;;;;;;;;5035256;28;20217;-28
2023/06/14 01:26:10;;;;;;;;;;;;;;;;;;5035240;28;19971;-25
2023/06/14 01:28:36;;;;;;;;;;;;;;;;;;5035307;28;19916;-25
2023/06/14 01:31:03;;;;;;;;;;;;;;;;;;5035176;28;19910;-23
2023/06/14 01:33:29;;;;;;;;;;;;;;;;;;5034850;28;20292;-30
2023/06/14 01:35:55;;;;;;;;;;;;;;;;;;5035073;28;19917;-28
2023/06/14 01:38:21;;;;;;;;;;;;;;;;;;5034924;28;19932;-30
2023/06/14 01:40:47;;;;;;;;;;;;;;;;;;5035612;28;19909;-26
2023/06/14 01:43:14;;;;;;;;;;;;;;;;;;5034803;28;20366;-22
2023/06/14 01:45:39;;;;;;;;;;;;;;;;;;5033852;28;19909;-29
2023/06/14 01:48:06;;;;;;;;;;;;;;;;;;5035061;28;19920;-22
2023/06/14 01:50:31;;;;;;;;;;;;;;;;;;5035022;28;19909;-24
2023/06/14 01:52:57;;;;;;;;;;;;;;;;;;5034655;28;20281;-26
2023/06/14 01:55:24;;;;;;;;;;;;;;;;;;5034594;28;20352;-25
2023/06/14 01:57:50;;;;;;;;;;;;;;;;;;5034547;28;19909;-23
2023/06/14 02:00:18;;;;;;;;;;;;;;;;;;5034816;28;19909;-24
2023/06/14 02:02:44;;;;;;;;;;;;;;;;;;5034525;28;20020;-25
2023/06/14 02:05:10;;;;;;;;;;;;;;;;;;5034426;28;19921;-26
2023/06/14 02:07:36;;;;;;;;;;;;;;;;;;5037003;28;20004;-26
2023/06/14 02:10:02;;;;;;;;;;;;;;;;;;5038698;28;20313;-26
2023/06/14 02:12:28;;;;;;;;;;;;;;;;;;5038817;28;19909;-27
2023/06/14 02:14:54;;;;;;;;;;;;;;;;;;5038523;28;19964;-28
2023/06/14 02:17:20;;;;;;;;;;;;;;;;;;5038862;28;19909;-24
2023/06/14 02:19:46;;;;;;;;;;;;;;;;;;5038806;28;19909;-22
2023/06/14 02:22:14;;;;;;;;;;;;;;;;;;5038367;28;20014;-26
2023/06/14 02:24:40;;;;;;;;;;;;;;;;;;5038692;28;19909;-24
2023/06/14 02:27:06;;;;;;;;;;;;;;;;;;5037337;28;19920;-26
2023/06/14 02:29:32;;;;;;;;;;;;;;;;;;5038323;28;19909;-23
2023/06/14 02:31:58;;;;;;;;;;;;;;;;;;5038137;28;20011;-21
2023/06/14 02:34:24;;;;;;;;;;;;;;;;;;5038156;28;19964;-24
2023/06/14 02:36:52;;;;;;;;;;;;;;;;;;5038195;28;19909;-24
2023/06/14 02:39:20;;;;;;;;;;;;;;;;;;5038156;28;20420;-25
2023/06/14 02:41:46;;;;;;;;;;;;;;;;;;5038032;28;19916;-26
2023/06/14 02:44:12;;;;;;;;;;;;;;;;;;5037997;28;19909;-21
2023/06/14 02:46:38;;;;;;;;;;;;;;;;;;5038270;28;19916;-27
2023/06/14 02:49:04;;;;;;;;;;;;;;;;;;5038192;28;19909;-28
2023/06/14 02:51:30;;;;;;;;;;;;;;;;;;5037908;28;19912;-28
2023/06/14 02:53:57;;;;;;;;;;;;;;;;;;5037803;28;20019;-23
2023/06/14 02:56:23;;;;;;;;;;;;;;;;;;5037884;28;20039;-27
2023/06/14 02:58:49;;;;;;;;;;;;;;;;;;5038160;28;19974;-29
2023/06/14 03:01:14;;;;;;;;;;;;;;;;;;5037838;28;19909;-27
2023/06/14 03:03:40;;;;;;;;;;;;;;;;;;5037523;28;19927;-26
2023/06/14 03:06:08;;;;;;;;;;;;;;;;;;5037673;28;19909;-23
2023/06/14 03:08:38;;;;;;;;;;;;;;;;;;5037840;28;19913;-25
2023/06/14 03:11:05;;;;;;;;;;;;;;;;;;5036573;28;20259;-28
2023/06/14 03:13:34;;;;;;;;;;;;;;;;;;5037476;28;19909;-26
2023/06/14 03:16:02;;;;;;;;;;;;;;;;;;5037677;28;20259;-24
2023/06/14 03:18:28;;;;;;;;;;;;;;;;;;5037349;28;19917;-24
2023/06/14 03:20:56;;;;;;;;;;;;;;;;;;5037661;28;20229;-27
2023/06/14 03:23:22;;;;;;;;;;;;;;;;;;5037529;28;19970;-22
2023/06/14 03:25:48;;;;;;;;;;;;;;;;;;5037274;28;19910;-23
2023/06/14 03:28:14;;;;;;;;;;;;;;;;;;5037455;28;19909;-23
2023/06/14 03:30:40;;;;;;;;;;;;;;;;;;5037454;28;20364;-25
2023/06/14 03:33:06;;;;;;;;;;;;;;;;;;5037921;28;20205;-25
2023/06/14 03:35:32;;;;;;;;;;;;;;;;;;5036015;28;20008;-30
2023/06/14 03:37:58;;;;;;;;;;;;;;;;;;5036995;28;19909;-28
2023/06/14 03:40:25;;;;;;;;;;;;;;;;;;5036963;28;20252;-25
2023/06/14 03:42:51;;;;;;;;;;;;;;;;;;5036925;28;19916;-29
2023/06/14 03:45:17;;;;;;;;;;;;;;;;;;5036869;28;20341;-22
2023/06/14 03:47:43;;;;;;;;;;;;;;;;;;5037059;28;19913;-25
2023/06/14 03:50:09;;;;;;;;;;;;;;;;;;5036710;28;20023;-27
2023/06/14 03:52:36;;;;;;;;;;;;;;;;;;5036518;28;19909;-23
2023/06/14 03:55:02;;;;;;;;;;;;;;;;;;5036548;28;19920;-28
2023/06/14 03:57:28;;;;;;;;;;;;;;;;;;5036243;28;19909;-27
2023/06/14 03:59:54;;;;;;;;;;;;;;;;;;5036489;28;19921;-28
2023/06/14 04:02:20;;;;;;;;;;;;;;;;;;5036688;28;20031;-24
2023/06/14 04:04:48;;;;;;;;;;;;;;;;;;5035419;28;19936;-26
2023/06/14 04:07:14;;;;;;;;;;;;;;;;;;5036503;28;19913;-26
2023/06/14 04:09:40;;;;;;;;;;;;;;;;;;5036311;28;19936;-25
2023/06/14 04:12:06;;;;;;;;;;;;;;;;;;5035167;28;19952;-25
2023/06/14 04:14:35;;;;;;;;;;;;;;;;;;5035787;28;19913;-25
2023/06/14 04:17:01;;;;;;;;;;;;;;;;;;5036369;28;19916;-26
2023/06/14 04:19:26;;;;;;;;;;;;;;;;;;5036122;28;19909;-25
2023/06/14 04:21:52;;;;;;;;;;;;;;;;;;5035265;28;19909;-22
2023/06/14 04:24:18;;;;;;;;;;;;;;;;;;5035807;28;19909;-27
2023/06/14 04:26:44;;;;;;;;;;;;;;;;;;5036028;28;19916;-23
2023/06/14 04:29:14;;;;;;;;;;;;;;;;;;5035365;28;20264;-32
2023/06/14 04:31:40;;;;;;;;;;;;;;;;;;5035649;28;19955;-27
2023/06/14 04:34:07;;;;;;;;;;;;;;;;;;5035777;28;19909;-25
2023/06/14 04:36:34;;;;;;;;;;;;;;;;;;5035606;28;20344;-27
2023/06/14 04:39:00;;;;;;;;;;;;;;;;;;5035673;28;19909;-24
2023/06/14 04:41:30;;;;;;;;;;;;;;;;;;5035656;28;20048;-23
2023/06/14 04:43:57;;;;;;;;;;;;;;;;;;5035212;28;19917;-23
2023/06/14 04:46:23;;;;;;;;;;;;;;;;;;5035613;28;19917;-26
2023/06/14 04:48:50;;;;;;;;;;;;;;;;;;5035164;28;20320;-25
2023/06/14 04:51:16;;;;;;;;;;;;;;;;;;5035202;28;19920;-27
2023/06/14 04:53:43;;;;;;;;;;;;;;;;;;5034506;28;19964;-25
2023/06/14 04:56:09;;;;;;;;;;;;;;;;;;5035116;28;20212;-25
2023/06/14 04:58:36;;;;;;;;;;;;;;;;;;5034008;28;20268;-26
2023/06/14 05:01:02;;;;;;;;;;;;;;;;;;5035316;28;19909;-25
2023/06/14 05:03:30;;;;;;;;;;;;;;;;;;5034765;28;19909;-26
2023/06/14 05:05:56;;;;;;;;;;;;;;;;;;5035410;28;20000;-29
2023/06/14 05:08:23;;;;;;;;;;;;;;;;;;5034986;28;19910;-26
2023/06/14 05:10:49;;;;;;;;;;;;;;;;;;5033885;28;19909;-24
2023/06/14 05:13:15;;;;;;;;;;;;;;;;;;5034855;28;19921;-26
2023/06/14 05:15:41;;;;;;;;;;;;;;;;;;5034980;28;19921;-26
2023/06/14 05:18:09;;;;;;;;;;;;;;;;;;5034725;28;19917;-25
2023/06/14 05:20:36;;;;;;;;;;;;;;;;;;5034772;28;19909;-23
2023/06/14 05:23:02;;;;;;;;;;;;;;;;;;5034384;28;19916;-29
2023/06/14 05:25:28;;;;;;;;;;;;;;;;;;5034742;28;19909;-25
2023/06/14 05:27:54;;;;;;;;;;;;;;;;;;5034763;28;19920;-28
2023/06/14 05:30:20;;;;;;;;;;;;;;;;;;5034756;28;19920;-22
2023/06/14 05:32:46;;;;;;;;;;;;;;;;;;5034487;28;20213;-24
2023/06/14 05:35:12;;;;;;;;;;;;;;;;;;5034427;28;19978;-28
2023/06/14 05:37:38;;;;;;;;;;;;;;;;;;5034422;28;19909;-24
2023/06/14 05:40:08;;;;;;;;;;;;;;;;;;5035040;28;19909;-31
2023/06/14 05:42:34;;;;;;;;;;;;;;;;;;5033970;28;20010;-30
2023/06/14 05:45:00;;;;;;;;;;;;;;;;;;5034448;28;20295;-25
2023/06/14 05:47:27;;;;;;;;;;;;;;;;;;5033513;28;19988;-31
2023/06/14 05:49:54;;;;;;;;;;;;;;;;;;5034522;28;19913;-24
2023/06/14 05:52:20;;;;;;;;;;;;;;;;;;5034381;28;19940;-27
2023/06/14 05:54:46;;;;;;;;;;;;;;;;;;5034634;28;19964;-27
2023/06/14 05:57:12;;;;;;;;;;;;;;;;;;5034470;28;19945;-29
2023/06/14 05:59:38;;;;;;;;;;;;;;;;;;5034343;28;20008;-27
2023/06/14 06:02:05;;;;;;;;;;;;;;;;;;5034593;28;20348;-24
2023/06/14 06:04:31;;;;;;;;;;;;;;;;;;5034813;28;19925;-26
2023/06/14 06:06:57;;;;;;;;;;;;;;;;;;5034381;28;19909;-22
2023/06/14 06:09:23;;;;;;;;;;;;;;;;;;5034292;28;19958;-30
2023/06/14 06:11:49;;;;;;;;;;;;;;;;;;5034315;28;19920;-22
2023/06/14 06:14:14;;;;;;;;;;;;;;;;;;5033982;28;19913;-23
2023/06/14 06:16:41;;;;;;;;;;;;;;;;;;5033817;28;19951;-22
2023/06/14 06:19:08;;;;;;;;;;;;;;;;;;5033784;28;19952;-27
2023/06/14 06:21:35;;;;;;;;;;;;;;;;;;5033899;28;19910;-27
2023/06/14 06:24:03;;;;;;;;;;;;;;;;;;5033774;28;19928;-24
2023/06/14 06:26:29;;;;;;;;;;;;;;;;;;5033830;28;20221;-27
2023/06/14 06:28:57;;;;;;;;;;;;;;;;;;5033736;28;19923;-25
2023/06/14 06:31:23;;;;;;;;;;;;;;;;;;5033719;28;19909;-23
2023/06/14 06:33:48;;;;;;;;;;;;;;;;;;5033674;28;19967;-27
2023/06/14 06:36:14;;;;;;;;;;;;;;;;;;5033671;28;19913;-27
2023/06/14 06:38:41;;;;;;;;;;;;;;;;;;5034540;28;19909;-23
2023/06/14 06:41:07;;;;;;;;;;;;;;;;;;5034196;28;19909;-30
2023/06/14 06:43:33;;;;;;;;;;;;;;;;;;5034053;28;20307;-24
2023/06/14 06:45:59;;;;;;;;;;;;;;;;;;5033787;28;19920;-22
2023/06/14 06:48:25;;;;;;;;;;;;;;;;;;5034231;28;20351;-27
2023/06/14 06:50:52;;;;;;;;;;;;;;;;;;5034067;28;19909;-24
2023/06/14 06:53:18;;;;;;;;;;;;;;;;;;5035627;28;20051;-25
2023/06/14 06:55:44;;;;;;;;;;;;;;;;;;5037639;28;19956;-22
2023/06/14 06:58:10;;;;;;;;;;;;;;;;;;5037520;28;19959;-29
2023/06/14 07:00:36;;;;;;;;;;;;;;;;;;5037476;28;19910;-26
2023/06/14 07:03:03;;;;;;;;;;;;;;;;;;5037377;28;19913;-26
2023/06/14 07:05:29;;;;;;;;;;;;;;;;;;5037110;28;19929;-26
2023/06/14 07:07:55;;;;;;;;;;;;;;;;;;5037212;28;19916;-29
2023/06/14 07:10:21;;;;;;;;;;;;;;;;;;5037153;28;20274;-24
2023/06/14 07:12:47;;;;;;;;;;;;;;;;;;5037259;28;20320;-24
2023/06/14 07:15:13;;;;;;;;;;;;;;;;;;5037443;28;20260;-27
2023/06/14 07:17:39;;;;;;;;;;;;;;;;;;5037191;28;19969;-24
2023/06/14 07:20:11;;;;;;;;;;;;;;;;;;5037365;28;20221;-28
2023/06/14 07:22:37;;;;;;;;;;;;;;;;;;5036202;28;19971;-24
2023/06/14 07:25:03;;;;;;;;;;;;;;;;;;5037015;28;19913;-28
2023/06/14 07:27:29;;;;;;;;;;;;;;;;;;5037269;28;19909;-20
2023/06/14 07:29:55;;;;;;;;;;;;;;;;;;5037179;28;19909;-23
2023/06/14 07:32:21;;;;;;;;;;;;;;;;;;5037134;28;19909;-29
2023/06/14 07:34:47;;;;;;;;;;;;;;;;;;5036776;28;20347;-24
2023/06/14 07:37:13;;;;;;;;;;;;;;;;;;5036098;28;19908;-22
2023/06/14 07:39:39;;;;;;;;;;;;;;;;;;5036948;28;20222;-25
2023/06/14 07:42:05;;;;;;;;;;;;;;;;;;5036983;28;20323;-28
2023/06/14 07:44:31;;;;;;;;;;;;;;;;;;5036858;28;19916;-28
2023/06/14 07:46:59;;;;;;;;;;;;;;;;;;5036639;28;19991;-29
2023/06/14 07:49:25;;;;;;;;;;;;;;;;;;5037224;28;19909;-27
2023/06/14 07:51:51;;;;;;;;;;;;;;;;;;5036422;28;19910;-26
2023/06/14 07:54:17;;;;;;;;;;;;;;;;;;5036177;28;20336;-26
2023/06/14 07:56:43;;;;;;;;;;;;;;;;;;5036187;28;19939;-27
2023/06/14 07:59:10;;;;;;;;;;;;;;;;;;5036047;28;19909;-23
2023/06/14 08:01:36;;;;;;;;;;;;;;;;;;5035679;28;19913;-30
2023/06/14 08:04:01;;;;;;;;;;;;;;;;;;5034990;28;20004;-26
2023/06/14 08:06:27;;;;;;;;;;;;;;;;;;5035763;28;19916;-25
2023/06/14 08:08:53;;;;;;;;;;;;;;;;;;5036293;28;20351;-21
2023/06/14 08:11:23;;;;;;;;;;;;;;;;;;5035664;28;20118;-26
2023/06/14 08:13:49;;;;;;;;;;;;;;;;;;5035805;28;19909;-23
2023/06/14 08:16:15;;;;;;;;;;;;;;;;;;5035891;28;19971;-30
2023/06/14 08:18:41;;;;;;;;;;;;;;;;;;5035897;28;20004;-25
2023/06/14 08:21:08;;;;;;;;;;;;;;;;;;5036033;28;19963;-26
2023/06/14 08:23:34;;;;;;;;;;;;;;;;;;5035793;28;19920;-28
2023/06/14 08:26:01;;;;;;;;;;;;;;;;;;5035728;28;19916;-26
2023/06/14 08:28:27;;;;;;;;;;;;;;;;;;5035948;28;19960;-26
2023/06/14 08:30:53;;;;;;;;;;;;;;;;;;5036063;28;19909;-26
2023/06/14 08:33:19;;;;;;;;;;;;;;;;;;5035700;28;19912;-28
2023/06/14 08:35:45;;;;;;;;;;;;;;;;;;5034585;28;19913;-24
2023/06/14 08:38:11;;;;;;;;;;;;;;;;;;5036022;28;19916;-23
2023/06/14 08:40:37;;;;;;;;;;;;;;;;;;5035653;28;19915;-25
2023/06/14 08:43:03;;;;;;;;;;;;;;;;;;5034155;28;19923;-25
2023/06/14 08:45:29;;;;;;;;;;;;;;;;;;5033986;28;19920;-25
2023/06/14 08:47:59;;;;;;;;;;;;;;;;;;5035075;28;19910;-29
2023/06/14 08:50:29;;;;;;;;;;;;;;;;;;5035046;28;20291;-27
2023/06/14 08:52:57;;;;;;;;;;;;;;;;;;5035013;28;19955;-26
2023/06/14 08:55:25;;;;;;;;;;;;;;;;;;5034968;28;19920;-28
2023/06/14 08:57:51;;;;;;;;;;;;;;;;;;5035226;28;20263;-28
2023/06/14 09:00:17;;;;;;;;;;;;;;;;;;5034852;28;19936;-24
2023/06/14 09:02:44;;;;;;;;;;;;;;;;;;5033666;28;19913;-25
2023/06/14 09:05:10;;;;;;;;;;;;;;;;;;5034528;28;19921;-25
2023/06/14 09:07:36;;;;;;;;;;;;;;;;;;5034640;28;20321;-26
2023/06/14 09:10:02;;;;;;;;;;;;;;;;;;5034568;28;19909;-29
2023/06/14 09:12:29;;;;;;;;;;;;;;;;;;5033462;28;19924;-26
2023/06/14 09:14:55;;;;;;;;;;;;;;;;;;5034733;28;20426;-26
2023/06/14 09:17:21;;;;;;;;;;;;;;;;;;5033332;28;19909;-28
2023/06/14 09:19:47;;;;;;;;;;;;;;;;;;5033525;28;19920;-31
2023/06/14 09:22:13;;;;;;;;;;;;;;;;;;5034543;28;19916;-22
2023/06/14 09:24:39;;;;;;;;;;;;;;;;;;5035141;28;20340;-27
2023/06/14 09:27:06;;;;;;;;;;;;;;;;;;5034997;28;19920;-25
2023/06/14 09:29:32;;;;;;;;;;;;;;;;;;5035064;28;19909;-23
2023/06/14 09:31:58;;;;;;;;;;;;;;;;;;5035170;28;20329;-25
2023/06/14 09:34:24;;;;;;;;;;;;;;;;;;5034855;28;19919;-25
2023/06/14 09:36:50;;;;;;;;;;;;;;;;;;5035215;28;19919;-26
2023/06/14 09:39:16;;;;;;;;;;;;;;;;;;5034736;28;19909;-23
2023/06/14 09:41:43;;;;;;;;;;;;;;;;;;5033742;28;19917;-22
2023/06/14 09:44:09;;;;;;;;;;;;;;;;;;5034629;28;19909;-26
2023/06/14 09:46:35;;;;;;;;;;;;;;;;;;5034565;28;19917;-25
2023/06/14 09:49:01;;;;;;;;;;;;;;;;;;5034944;28;20246;-26
2023/06/14 09:51:27;;;;;;;;;;;;;;;;;;5033565;28;19916;-28
2023/06/14 09:53:53;;;;;;;;;;;;;;;;;;5034706;28;19909;-28
2023/06/14 09:56:19;;;;;;;;;;;;;;;;;;5034493;28;19979;-26
2023/06/14 09:58:45;;;;;;;;;;;;;;;;;;5034356;28;19909;-24
2023/06/14 10:01:13;;;;;;;;;;;;;;;;;;5034338;28;20301;-23
2023/06/14 10:03:39;;;;;;;;;;;;;;;;;;5034119;28;19947;-26
2023/06/14 10:06:05;;;;;;;;;;;;;;;;;;5033460;28;19917;-27
2023/06/14 10:08:33;;;;;;;;;;;;;;;;;;5034252;28;19979;-27
2023/06/14 10:10:59;;;;;;;;;;;;;;;;;;5034218;28;19963;-28
2023/06/14 10:13:25;;;;;;;;;;;;;;;;;;5034151;28;19913;-26
2023/06/14 10:15:51;;;;;;;;;;;;;;;;;;5033979;28;19919;-28
2023/06/14 10:18:20;;;;;;;;;;;;;;;;;;5034532;28;19916;-28
2023/06/14 10:20:46;;;;;;;;;;;;;;;;;;5034299;28;20320;-26
2023/06/14 10:23:12;;;;;;;;;;;;;;;;;;5034214;28;19959;-28
2023/06/14 10:25:38;;;;;;;;;;;;;;;;;;5034540;28;19916;-26
2023/06/14 10:28:05;;;;;;;;;;;;;;;;;;5035716;28;19920;-27
2023/06/14 10:30:31;;;;;;;;;;;;;;;;;;5038389;28;19909;-28
2023/06/14 10:32:57;;;;;;;;;;;;;;;;;;5037967;28;20366;-27
2023/06/14 10:35:23;;;;;;;;;;;;;;;;;;5038141;28;19913;-28
2023/06/14 10:37:49;;;;;;;;;;;;;;;;;;5038182;28;19919;-27
2023/06/14 10:40:15;;;;;;;;;;;;;;;;;;5036937;28;19909;-27
2023/06/14 10:42:41;;;;;;;;;;;;;;;;;;5036774;28;20007;-30
2023/06/14 10:45:07;;;;;;;;;;;;;;;;;;5038122;28;19917;-24
2023/06/14 10:47:34;;;;;;;;;;;;;;;;;;5037856;28;19909;-23
2023/06/14 10:50:00;;;;;;;;;;;;;;;;;;5037624;28;20000;-25
2023/06/14 10:52:27;;;;;;;;;;;;;;;;;;5037670;28;19910;-23
2023/06/14 10:54:53;;;;;;;;;;;;;;;;;;5037846;28;20237;-25
2023/06/14 10:57:20;;;;;;;;;;;;;;;;;;5037843;28;19967;-22
2023/06/14 10:59:46;;;;;;;;;;;;;;;;;;5036226;28;19909;-23
2023/06/14 11:02:12;;;;;;;;;;;;;;;;;;5037254;28;19917;-22
2023/06/14 11:04:38;;;;;;;;;;;;;;;;;;5036899;28;20020;-28
2023/06/14 11:07:04;;;;;;;;;;;;;;;;;;5037039;28;19913;-30
2023/06/14 11:09:32;;;;;;;;;;;;;;;;;;5037232;28;19928;-24
2023/06/14 11:11:58;;;;;;;;;;;;;;;;;;5037469;28;19982;-21
2023/06/14 11:14:24;;;;;;;;;;;;;;;;;;5036918;28;19913;-25
2023/06/14 11:16:49;;;;;;;;;;;;;;;;;;5036788;28;19920;-25
2023/06/14 11:19:17;;;;;;;;;;;;;;;;;;5037123;28;19944;-26
2023/06/14 11:21:43;;;;;;;;;;;;;;;;;;5036819;28;19952;-27
2023/06/14 11:24:09;;;;;;;;;;;;;;;;;;5037035;28;19921;-28
2023/06/14 11:26:35;;;;;;;;;;;;;;;;;;5036999;28;19913;-27
2023/06/14 11:29:01;;;;;;;;;;;;;;;;;;5036994;28;19973;-24
2023/06/14 11:31:27;;;;;;;;;;;;;;;;;;5037186;28;19916;-27
2023/06/14 11:33:53;;;;;;;;;;;;;;;;;;5037091;28;20050;-24
2023/06/14 11:36:19;;;;;;;;;;;;;;;;;;5036763;28;19959;-23
2023/06/14 11:38:45;;;;;;;;;;;;;;;;;;5036046;28;19917;-29
2023/06/14 11:41:11;;;;;;;;;;;;;;;;;;5034946;28;20332;-26
2023/06/14 11:43:37;;;;;;;;;;;;;;;;;;5036472;28;20255;-30
2023/06/14 11:46:03;;;;;;;;;;;;;;;;;;5036607;28;19972;-26
2023/06/14 11:48:29;;;;;;;;;;;;;;;;;;5036660;28;19909;-31
2023/06/14 11:50:55;;;;;;;;;;;;;;;;;;5036666;28;20329;-29
2023/06/14 11:53:21;;;;;;;;;;;;;;;;;;5036551;28;19909;-26
2023/06/14 11:55:47;;;;;;;;;;;;;;;;;;5036715;28;20024;-29
2023/06/14 11:58:14;;;;;;;;;;;;;;;;;;5036712;28;19920;-24
2023/06/14 12:00:40;;;;;;;;;;;;;;;;;;5036521;28;20260;-24
2023/06/14 12:03:06;;;;;;;;;;;;;;;;;;5035466;28;19996;-27
2023/06/14 12:05:32;;;;;;;;;;;;;;;;;;5036232;28;20372;-21
2023/06/14 12:07:58;;;;;;;;;;;;;;;;;;5036379;28;19916;-28
2023/06/14 12:10:24;;;;;;;;;;;;;;;;;;5036613;28;20351;-27
2023/06/14 12:12:50;;;;;;;;;;;;;;;;;;5036356;28;19991;-26
2023/06/14 12:15:16;;;;;;;;;;;;;;;;;;5036471;28;19921;-25
2023/06/14 12:17:43;;;;;;;;;;;;;;;;;;5036484;28;20010;-30
2023/06/14 12:20:16;;;;;;;;;;;;;;;;;;5036211;28;19908;-26
2023/06/14 12:22:42;;;;;;;;;;;;;;;;;;5034837;28;19909;-28
2023/06/14 12:25:09;;;;;;;;;;;;;;;;;;5035996;28;19913;-27
2023/06/14 12:27:36;;;;;;;;;;;;;;;;;;5035798;28;19909;-25
2023/06/14 12:30:02;;;;;;;;;;;;;;;;;;5035957;28;19909;-26
2023/06/14 12:32:28;;;;;;;;;;;;;;;;;;5035809;28;20011;-28
2023/06/14 12:34:54;;;;;;;;;;;;;;;;;;5035646;28;20236;-23
2023/06/14 12:37:20;;;;;;;;;;;;;;;;;;5036164;28;19909;-21
2023/06/14 12:39:46;;;;;;;;;;;;;;;;;;5035498;28;19909;-28
2023/06/14 12:42:14;;;;;;;;;;;;;;;;;;5035491;28;19919;-29
2023/06/14 12:44:40;;;;;;;;;;;;;;;;;;5035365;28;19944;-27
2023/06/14 12:47:06;;;;;;;;;;;;;;;;;;5035666;28;19909;-25
2023/06/14 12:49:32;;;;;;;;;;;;;;;;;;5035406;28;19909;-28
2023/06/14 12:51:58;;;;;;;;;;;;;;;;;;5035179;28;20004;-30
2023/06/14 12:54:25;;;;;;;;;;;;;;;;;;5035321;28;19921;-26
2023/06/14 12:56:51;;;;;;;;;;;;;;;;;;5035223;28;19955;-27
2023/06/14 12:59:17;;;;;;;;;;;;;;;;;;5035842;28;19909;-27
2023/06/14 13:01:44;;;;;;;;;;;;;;;;;;5035028;28;19913;-25
2023/06/14 13:04:10;;;;;;;;;;;;;;;;;;5035038;28;19921;-25
2023/06/14 13:06:36;;;;;;;;;;;;;;;;;;5034296;28;19909;-25
2023/06/14 13:09:03;;;;;;;;;;;;;;;;;;5035527;28;19909;-28
2023/06/14 13:11:30;;;;;;;;;;;;;;;;;;5034416;28;19920;-29
2023/06/14 13:13:56;;;;;;;;;;;;;;;;;;5034973;28;19933;-27
2023/06/14 13:16:22;;;;;;;;;;;;;;;;;;5034999;28;20003;-25
2023/06/14 13:18:48;;;;;;;;;;;;;;;;;;5033988;28;19916;-26
2023/06/14 13:21:14;;;;;;;;;;;;;;;;;;5034797;28;19914;-28
2023/06/14 13:23:40;;;;;;;;;;;;;;;;;;5034912;28;19965;-24
2023/06/14 13:26:06;;;;;;;;;;;;;;;;;;5035165;28;19909;-28
2023/06/14 13:28:32;;;;;;;;;;;;;;;;;;5035263;28;19909;-23
2023/06/14 13:30:58;;;;;;;;;;;;;;;;;;5035054;28;19920;-30
2023/06/14 13:33:24;;;;;;;;;;;;;;;;;;5034870;28;19913;-29
2023/06/14 13:35:52;;;;;;;;;;;;;;;;;;5034549;28;19913;-24
2023/06/14 13:38:18;;;;;;;;;;;;;;;;;;5034463;28;19909;-26
2023/06/14 13:40:44;;;;;;;;;;;;;;;;;;5034547;28;19917;-25
2023/06/14 13:43:10;;;;;;;;;;;;;;;;;;5034662;28;19913;-22
2023/06/14 13:45:36;;;;;;;;;;;;;;;;;;5034492;28;19916;-25
2023/06/14 13:48:02;;;;;;;;;;;;;;;;;;5034470;28;19909;-25
2023/06/14 13:50:29;;;;;;;;;;;;;;;;;;5034808;28;20016;-24
2023/06/14 13:52:55;;;;;;;;;;;;;;;;;;5034601;28;19916;-21
2023/06/14 13:55:21;;;;;;;;;;;;;;;;;;5034606;28;19913;-23
2023/06/14 13:57:47;;;;;;;;;;;;;;;;;;5034619;28;19909;-24
2023/06/14 14:00:13;;;;;;;;;;;;;;;;;;5034913;28;19921;-23
2023/06/14 14:02:39;;;;;;;;;;;;;;;;;;5033985;28;20355;-26
2023/06/14 14:05:06;;;;;;;;;;;;;;;;;;5034305;28;19921;-25
2023/06/14 14:07:32;;;;;;;;;;;;;;;;;;5034605;28;20233;-28
2023/06/14 14:09:58;;;;;;;;;;;;;;;;;;5034595;28;19909;-24
2023/06/14 14:12:25;;;;;;;;;;;;;;;;;;5034450;28;19995;-26
2023/06/14 14:14:51;;;;;;;;;;;;;;;;;;5034365;28;19980;-26
2023/06/14 14:17:17;;;;;;;;;;;;;;;;;;5034122;28;20012;-29
2023/06/14 14:19:43;;;;;;;;;;;;;;;;;;5033003;28;20025;-25
2023/06/14 14:22:09;;;;;;;;;;;;;;;;;;5034254;28;19916;-27
2023/06/14 14:24:35;;;;;;;;;;;;;;;;;;5034422;28;20052;-25
2023/06/14 14:27:01;;;;;;;;;;;;;;;;;;5034139;28;19967;-26
2023/06/14 14:29:29;;;;;;;;;;;;;;;;;;5033150;28;20354;-27
2023/06/14 14:31:55;;;;;;;;;;;;;;;;;;5033992;28;19922;-30
2023/06/14 14:34:21;;;;;;;;;;;;;;;;;;5034286;28;19909;-19
2023/06/14 14:36:47;;;;;;;;;;;;;;;;;;5034234;28;19909;-26
2023/06/14 14:39:13;;;;;;;;;;;;;;;;;;5034304;28;19979;-25
2023/06/14 14:41:39;;;;;;;;;;;;;;;;;;5034063;28;19909;-28
2023/06/14 14:44:05;;;;;;;;;;;;;;;;;;5033084;28;19920;-27
2023/06/14 14:46:31;;;;;;;;;;;;;;;;;;5034165;28;20407;-22
2023/06/14 14:48:57;;;;;;;;;;;;;;;;;;5034442;28;19958;-26
2023/06/14 14:51:23;;;;;;;;;;;;;;;;;;5033961;28;19948;-27
2023/06/14 14:53:49;;;;;;;;;;;;;;;;;;5033960;28;19982;-32
2023/06/14 14:56:16;;;;;;;;;;;;;;;;;;5034001;28;19913;-30
2023/06/14 14:58:43;;;;;;;;;;;;;;;;;;5034029;28;19990;-27
2023/06/14 15:01:09;;;;;;;;;;;;;;;;;;5032924;28;20004;-30
2023/06/14 15:03:35;;;;;;;;;;;;;;;;;;5033460;28;19999;-25
2023/06/14 15:06:01;;;;;;;;;;;;;;;;;;5033923;28;19925;-25
2023/06/14 15:08:27;;;;;;;;;;;;;;;;;;5032900;28;19941;-28
2023/06/14 15:10:52;;;;;;;;;;;;;;;;;;5033837;28;19909;-24
2023/06/14 15:13:19;;;;;;;;;;;;;;;;;;5033991;28;20379;-28
2023/06/14 15:15:45;;;;;;;;;;;;;;;;;;5036783;28;19916;-26
2023/06/14 15:18:11;;;;;;;;;;;;;;;;;;5036518;28;19992;-20
2023/06/14 15:20:37;;;;;;;;;;;;;;;;;;5037200;28;19917;-29
2023/06/14 15:23:03;;;;;;;;;;;;;;;;;;5036620;28;20305;-25
2023/06/14 15:25:29;;;;;;;;;;;;;;;;;;5036567;28;20390;-26
2023/06/14 15:27:55;;;;;;;;;;;;;;;;;;5037223;28;19920;-28
2023/06/14 15:30:21;;;;;;;;;;;;;;;;;;5036587;28;20252;-29
2023/06/14 15:32:47;;;;;;;;;;;;;;;;;;5036729;28;19941;-28
2023/06/14 15:35:13;;;;;;;;;;;;;;;;;;5036356;28;20237;-25
2023/06/14 15:37:39;;;;;;;;;;;;;;;;;;5036653;28;19909;-30
2023/06/14 15:40:05;;;;;;;;;;;;;;;;;;5036891;28;19955;-27
2023/06/14 15:42:31;;;;;;;;;;;;;;;;;;5036413;28;20251;-27
2023/06/14 15:44:57;;;;;;;;;;;;;;;;;;5036784;28;19945;-28
2023/06/14 15:47:23;;;;;;;;;;;;;;;;;;5036870;28;20335;-27
2023/06/14 15:49:49;;;;;;;;;;;;;;;;;;5036827;28;20276;-29
2023/06/14 15:52:15;;;;;;;;;;;;;;;;;;5037010;28;20255;-24
2023/06/14 15:54:41;;;;;;;;;;;;;;;;;;5036725;28;19914;-26
2023/06/14 15:57:07;;;;;;;;;;;;;;;;;;5035420;28;19967;-26
2023/06/14 15:59:33;;;;;;;;;;;;;;;;;;5036472;28;20267;-29
2023/06/14 16:01:59;;;;;;;;;;;;;;;;;;5036341;28;19920;-27
2023/06/14 16:04:25;;;;;;;;;;;;;;;;;;5036154;28;19947;-26
2023/06/14 16:06:52;;;;;;;;;;;;;;;;;;5036697;28;19995;-27
2023/06/14 16:09:18;;;;;;;;;;;;;;;;;;5036733;28;19913;-23
2023/06/14 16:11:44;;;;;;;;;;;;;;;;;;5036640;28;20394;-26
2023/06/14 16:14:10;;;;;;;;;;;;;;;;;;5036073;28;20348;-30
2023/06/14 16:16:36;;;;;;;;;;;;;;;;;;5036024;28;19913;-26
2023/06/14 16:19:02;;;;;;;;;;;;;;;;;;5036294;28;19909;-28
2023/06/14 16:21:28;;;;;;;;;;;;;;;;;;5036178;28;20007;-25
2023/06/14 16:23:54;;;;;;;;;;;;;;;;;;5035850;28;19945;-23
2023/06/14 16:26:20;;;;;;;;;;;;;;;;;;5035097;28;19968;-25
2023/06/14 16:28:46;;;;;;;;;;;;;;;;;;5035654;28;19970;-30
2023/06/14 16:31:14;;;;;;;;;;;;;;;;;;5035535;28;19936;-26
2023/06/14 16:33:40;;;;;;;;;;;;;;;;;;5035720;28;19920;-25
2023/06/14 16:36:06;;;;;;;;;;;;;;;;;;5035483;28;20240;-29
2023/06/14 16:38:32;;;;;;;;;;;;;;;;;;5035813;28;20289;-24